Emerson, New Jersey
Current Conditions -  °F | °C
As of 2:51 PM on Friday 19 Dec 2014 (Local Time) from KTEB Reporting Station
Clear Clear  
Wind Chill: 28°   Ceiling: Unl
Heat Index: 37°   Visibility: 10mi
Dew Point: 21°   Wind: 16mph
Humidity: 52%   Direction: 300°WNW
Pressure: 30.05"   Gusts: 21mph
Location:  40.98°N, 74.02°W
Report Text: KTEB 191951Z 30014G18KT 10SM CLR 03/M06 A3005 RMK AO2 SLP175 T00281061
Loading
Personal Weather Stations






























Interactive Weather Map New forecast layout! Learn more

10-Day Weather Forecast

Advertisements
Track Severe Weather on mobile